KFLL/FLL METAR and TAF weather

Enter ICAO airport designator
Station Type Date Time Source
KFLL METAR 2021/10/22 17:53 UTC NOAA

KFLL 221753Z 15006KT 3SM TSRA FEW013 BKN020CB OVC038 23/23 A2999 RMK OCNL LTGICCG NE-SE TS NE-SE MOV N CB OHD-N-E-S MOV N


Station Type Date Time Source
KFLL Decoded METAR 2021/10/22 17:53 UTC NOAA

FORT LAUDERDALE/HOLLYWOOD, FL, United States (KFLL) 26-04N 080-09W 30M
Oct 22, 2021 - 01:53 PM EDT / 2021.10.22 1753 UTC
Wind: from the SSE (150 degrees) at 7 MPH (6 KT):0
Visibility: 3 mile(s):0
Sky conditions: overcast
Weather: rain with thunder; Cumulonimbus clouds, lightning observed
Temperature: 73 F (23 C)
Dew Point: 73 F (23 C)
Relative Humidity: 100%
Pressure (altimeter): 29.99 in. Hg (1015 hPa)
ob: KFLL 221753Z 15006KT 3SM TSRA FEW013 BKN020CB OVC038 23/23 A2999 RMK OCNL LTGICCG NE-SE TS NE-SE MOV N CB OHD-N-E-S MOV N
cycle: 18

Station Type Date Time Source
KFLL TAF 2021/10/22 18:46 UTC NOAA

TAF COR KFLL 221739Z 2218/2324 08010KT P6SM VCTS SCT025CB SCT050
TEMPO 2218/2219 VRB15G25KT 2SM TSRA BKN025CB
FM221900 09010KT P6SM VCSH SCT030 SCT060
FM230000 VRB05KT P6SM VCSH SCT025 SCT050
FM230600 VRB05KT P6SM VCTS SCT025CB BKN050 PROB30 2309/2312 5SM TSRA BKN025CB
FM231500 07009KT P6SM VCSH SCT025 SCT050

Example: see airport list